Time;durP1;ratioP1;P1;durP2;ratioP2;P2;SDS_P1;SDS_P2;PMS_P1;PMS_P2;Temp;Humidity;BMP_temperature;BMP_pressure;BME280_temperature;BME280_humidity;BME280_pressure;Samples;Min_cycle;Max_cycle;Signal;HPM_P1;HPM_P2
2022/07/16 00:02:07;;;;;;;0.77;0.30;;;;;;;15.58;64.79;101215.94;4910033;29;20044;-86
2022/07/16 00:04:33;;;;;;;2.05;0.75;;;;;;;15.58;64.36;101213.31;4902099;29;20054;-88
2022/07/16 00:07:00;;;;;;;1.55;0.47;;;;;;;15.58;64.45;101208.03;4902636;29;20052;-85
2022/07/16 00:09:27;;;;;;;0.82;0.40;;;;;;;15.54;64.78;101210.75;4905660;29;20062;-84
2022/07/16 00:11:53;;;;;;;0.35;0.25;;;;;;;15.52;64.82;101204.59;4924235;29;20071;-84
2022/07/16 00:14:24;;;;;;;0.40;0.25;;;;;;;15.53;64.67;101197.59;4912189;29;20312;-85
2022/07/16 00:16:52;;;;;;;0.32;0.22;;;;;;;15.55;64.72;101201.03;4916106;29;20856;-86
2022/07/16 00:19:26;;;;;;;3.10;0.57;;;;;;;15.57;64.60;101203.66;4908093;29;20089;-85
2022/07/16 00:21:56;;;;;;;0.25;0.25;;;;;;;15.60;64.56;101200.97;4923730;29;20638;-84
2022/07/16 00:24:24;;;;;;;3.03;0.65;;;;;;;15.63;64.15;101201.75;4924060;29;20047;-85
2022/07/16 00:26:54;;;;;;;0.88;0.28;;;;;;;15.66;64.20;101203.47;4924052;29;20079;-85
2022/07/16 00:29:20;;;;;;;2.72;0.70;;;;;;;15.68;63.97;101197.25;4928100;29;20525;-84
2022/07/16 00:31:49;;;;;;;2.25;0.30;;;;;;;15.71;63.98;101199.81;4917918;29;20051;-87
2022/07/16 00:34:18;;;;;;;0.40;0.30;;;;;;;15.77;63.69;101201.44;4946377;28;20490;-84
2022/07/16 00:36:45;;;;;;;1.00;0.28;;;;;;;15.81;63.42;101200.53;4905466;29;20075;-84
2022/07/16 00:39:15;;;;;;;1.42;0.17;;;;;;;15.86;63.14;101196.00;4927572;29;20043;-84
2022/07/16 00:41:50;;;;;;;1.17;0.30;;;;;;;15.92;62.71;101194.13;4930566;29;20042;-85
2022/07/16 00:44:24;;;;;;;1.38;0.47;;;;;;;15.94;62.66;101187.03;4930665;28;20051;-83
2022/07/16 00:46:51;;;;;;;1.35;0.25;;;;;;;15.90;62.22;101180.97;4910537;29;20043;-85
2022/07/16 00:49:21;;;;;;;2.05;0.20;;;;;;;15.94;62.20;101181.75;4912699;29;20051;-85
2022/07/16 00:51:51;;;;;;;0.35;0.35;;;;;;;16.03;61.91;101179.81;4927046;29;20055;-85
2022/07/16 00:54:19;;;;;;;2.58;0.50;;;;;;;16.04;61.55;101186.78;4925348;29;20108;-85
2022/07/16 00:56:47;;;;;;;2.45;0.60;;;;;;;16.04;62.01;101185.94;4907949;29;20056;-85
2022/07/16 00:59:14;;;;;;;3.42;0.82;;;;;;;15.99;62.23;101183.38;4924266;29;20108;-84
2022/07/16 01:01:41;;;;;;;3.40;0.40;;;;;;;16.00;62.33;101195.69;4897954;29;20062;-84
2022/07/16 01:04:10;;;;;;;0.80;0.68;;;;;;;15.99;62.51;101188.66;4912970;29;20052;-84
2022/07/16 01:06:37;;;;;;;2.47;0.50;;;;;;;15.98;62.46;101197.53;4890767;29;20728;-87
2022/07/16 01:09:05;;;;;;;2.47;0.60;;;;;;;16.00;62.77;101192.19;4908842;29;20742;-84
2022/07/16 01:11:32;;;;;;;1.40;0.52;;;;;;;16.06;63.18;101186.78;4912699;29;20063;-85
2022/07/16 01:14:00;;;;;;;3.55;0.80;;;;;;;16.14;63.24;101194.50;4912543;29;20166;-85
2022/07/16 01:16:27;;;;;;;0.40;0.40;;;;;;;16.13;63.17;101191.00;4903365;29;20054;-85
2022/07/16 01:18:53;;;;;;;0.75;0.75;;;;;;;16.12;63.05;101191.03;4895749;29;20947;-83
2022/07/16 01:21:20;;;;;;;2.15;0.52;;;;;;;16.12;63.31;101188.41;4909197;29;20043;-84
2022/07/16 01:23:49;;;;;;;0.60;0.60;;;;;;;16.10;63.17;101188.44;4896139;29;20193;-83
2022/07/16 01:26:16;;;;;;;2.80;0.52;;;;;;;16.10;63.52;101195.47;4903105;29;20062;-85
2022/07/16 01:28:42;;;;;;;1.13;0.60;;;;;;;16.09;63.75;101196.38;4907871;29;20094;-83
2022/07/16 01:31:09;;;;;;;0.93;0.52;;;;;;;16.07;63.81;101190.28;4907460;29;20051;-85
2022/07/16 01:33:41;;;;;;;1.42;0.90;;;;;;;16.05;64.16;101185.03;4906473;29;20075;-84
2022/07/16 01:36:15;;;;;;;1.25;0.40;;;;;;;16.02;64.08;101179.81;4907474;29;20106;-84
2022/07/16 01:38:47;;;;;;;1.67;0.68;;;;;;;16.02;64.47;101179.81;4891092;29;20261;-84
2022/07/16 01:41:15;;;;;;;1.75;0.30;;;;;;;16.02;64.55;101179.81;4912695;29;20059;-84
2022/07/16 01:43:42;;;;;;;1.30;0.73;;;;;;;16.02;64.55;101177.16;4913003;29;20051;-87
2022/07/16 01:46:09;;;;;;;1.38;0.70;;;;;;;16.04;65.09;101178.00;4907210;29;20044;-85
2022/07/16 01:48:35;;;;;;;1.45;0.80;;;;;;;16.02;64.82;101172.78;4910148;29;20552;-84
2022/07/16 01:51:02;;;;;;;1.48;0.85;;;;;;;16.05;64.81;101177.13;4912370;29;20058;-84
2022/07/16 01:53:31;;;;;;;0.80;0.80;;;;;;;16.04;65.10;101173.59;4912874;29;20078;-85
2022/07/16 01:56:00;;;;;;;1.10;1.00;;;;;;;16.06;65.04;101175.34;4902379;29;20058;-82
2022/07/16 01:58:27;;;;;;;2.17;0.90;;;;;;;16.04;64.99;101167.44;4892550;29;20335;-84
2022/07/16 02:00:54;;;;;;;2.72;0.98;;;;;;;16.04;65.24;101164.81;4896821;29;20411;-84
2022/07/16 02:03:21;;;;;;;1.05;0.80;;;;;;;16.02;65.38;101166.59;4895073;29;20705;-84
2022/07/16 02:05:48;;;;;;;2.03;0.88;;;;;;;15.99;65.35;101170.19;4906790;29;20143;-85
2022/07/16 02:08:14;;;;;;;0.88;0.88;;;;;;;15.93;65.97;101158.91;4892391;29;20115;-84
2022/07/16 02:10:41;;;;;;;1.73;0.82;;;;;;;15.91;66.16;101161.59;4910579;29;20043;-84
2022/07/16 02:13:08;;;;;;;1.92;0.85;;;;;;;15.94;66.16;101158.00;4893521;29;20126;-84
2022/07/16 02:15:36;;;;;;;2.45;1.08;;;;;;;15.95;66.15;101160.59;4890217;29;20044;-84
2022/07/16 02:18:05;;;;;;;1.27;0.85;;;;;;;15.97;66.16;101156.16;4911626;29;20048;-85
2022/07/16 02:20:32;;;;;;;2.22;0.95;;;;;;;16.03;65.99;101161.31;4895518;29;20541;-84
2022/07/16 02:22:59;;;;;;;1.10;1.10;;;;;;;16.06;65.97;101152.44;4906215;29;20043;-86
2022/07/16 02:25:25;;;;;;;4.22;1.10;;;;;;;16.09;65.77;101155.00;4902007;29;20452;-84
2022/07/16 02:28:08;;;;;;;0.73;0.73;;;;;;;16.12;65.61;101156.72;4893454;29;20415;-85
2022/07/16 02:30:46;;;;;;;0.77;0.73;;;;;;;16.19;65.66;101151.25;4927355;29;20725;-84
2022/07/16 02:33:17;;;;;;;3.25;0.98;;;;;;;16.24;64.99;101151.13;4895127;29;20059;-83
2022/07/16 02:35:46;;;;;;;0.80;0.80;;;;;;;16.26;64.79;101148.47;4900583;29;20075;-84
2022/07/16 02:38:14;;;;;;;2.40;1.60;;;;;;;16.27;64.88;101152.81;4895040;29;20048;-83
2022/07/16 02:40:44;;;;;;;1.45;1.35;;;;;;;16.29;64.66;101151.88;4912223;29;20059;-84
2022/07/16 02:43:15;;;;;;;0.95;0.95;;;;;;;16.33;64.24;101148.25;4922914;29;20054;-85
2022/07/16 02:45:43;;;;;;;0.65;0.60;;;;;;;16.34;64.07;101147.34;4892707;29;20157;-86
2022/07/16 02:48:10;;;;;;;4.95;0.88;;;;;;;16.37;63.57;101144.63;4909264;29;20062;-85
2022/07/16 02:50:39;;;;;;;0.80;0.80;;;;;;;16.38;63.41;101142.84;4913515;29;20055;-86
2022/07/16 02:53:06;;;;;;;1.67;0.85;;;;;;;16.35;63.31;101141.16;4901214;28;20058;-86
2022/07/16 02:55:32;;;;;;;2.35;1.20;;;;;;;16.37;63.11;101133.19;4945019;28;20252;-84
2022/07/16 02:57:59;;;;;;;4.60;1.00;;;;;;;16.34;63.15;101136.75;4915418;28;20055;-86
2022/07/16 03:00:28;;;;;;;3.70;1.05;;;;;;;16.33;63.27;101124.47;4937031;28;20092;-84
2022/07/16 03:02:55;;;;;;;1.20;1.00;;;;;;;16.35;62.97;101127.09;4947823;28;20047;-83
2022/07/16 03:05:22;;;;;;;2.90;1.10;;;;;;;16.33;62.80;101123.59;4911251;28;20193;-86
2022/07/16 03:07:49;;;;;;;1.55;1.00;;;;;;;16.40;62.45;101140.16;4915165;28;20087;-86
2022/07/16 03:10:16;;;;;;;1.15;0.98;;;;;;;16.40;62.24;101129.59;4929596;28;20084;-84
2022/07/16 03:12:43;;;;;;;1.67;0.95;;;;;;;16.39;62.01;101118.16;4931314;28;20075;-85
2022/07/16 03:15:12;;;;;;;0.80;0.80;;;;;;;16.41;61.87;101118.13;4929117;28;20118;-83
2022/07/16 03:17:42;;;;;;;3.88;1.15;;;;;;;16.40;61.73;101126.94;4934957;28;20027;-84
2022/07/16 03:20:11;;;;;;;1.02;1.02;;;;;;;16.38;61.76;101130.50;4946966;28;20074;-84
2022/07/16 03:22:46;;;;;;;2.05;1.02;;;;;;;16.36;61.83;101132.31;4931719;28;20106;-85
2022/07/16 03:25:16;;;;;;;0.93;0.90;;;;;;;16.37;61.61;101126.16;4914413;28;20062;-86
2022/07/16 03:27:43;;;;;;;4.13;1.40;;;;;;;16.36;61.72;101131.44;4928852;28;20078;-83
2022/07/16 03:30:11;;;;;;;3.65;1.08;;;;;;;16.33;61.94;101124.47;4937427;28;20050;-80
2022/07/16 03:32:37;;;;;;;1.40;1.25;;;;;;;16.34;62.01;101125.34;4910834;28;20043;-83
2022/07/16 03:35:09;;;;;;;1.45;1.00;;;;;;;16.36;62.06;101121.75;4928819;28;20126;-86
2022/07/16 03:38:57;;;;;;;1.05;0.95;;;;;;;16.31;62.36;101126.28;4930921;28;20340;-84
2022/07/16 03:40:23;;;;;;;0.82;0.82;;;;;;;16.32;62.44;101125.38;4918723;28;20284;-84
2022/07/16 03:42:50;;;;;;;1.90;0.90;;;;;;;16.30;62.73;101119.25;4914997;28;20098;-86
2022/07/16 03:45:17;;;;;;;0.98;0.98;;;;;;;16.27;62.69;101126.38;4917505;28;20125;-87
2022/07/16 03:47:43;;;;;;;4.47;1.40;;;;;;;16.28;62.85;101128.13;4934376;28;20413;-84
2022/07/16 03:50:10;;;;;;;1.10;0.95;;;;;;;16.26;62.86;101127.31;4930918;28;20059;-85
2022/07/16 03:52:37;;;;;;;1.45;1.00;;;;;;;16.27;63.06;101134.31;4916386;28;20466;-85
2022/07/16 03:55:04;;;;;;;5.57;1.27;;;;;;;16.27;62.87;101140.50;4930806;28;20145;-87
2022/07/16 03:57:31;;;;;;;1.40;1.02;;;;;;;16.30;62.70;101136.91;4934225;28;20418;-85
2022/07/16 03:59:58;;;;;;;1.35;0.82;;;;;;;16.29;62.68;101133.38;4923367;28;20054;-83
2022/07/16 04:02:24;;;;;;;1.98;1.10;;;;;;;16.28;62.80;101136.06;4925221;28;20057;-84
2022/07/16 04:04:52;;;;;;;1.42;1.33;;;;;;;16.26;62.87;101137.88;4921688;28;20051;-83
2022/07/16 04:07:18;;;;;;;1.10;0.98;;;;;;;16.22;62.92;101145.00;4940747;28;20077;-86
2022/07/16 04:09:45;;;;;;;0.80;0.77;;;;;;;16.21;63.10;101154.69;4916135;28;20058;-84
2022/07/16 04:12:12;;;;;;;1.23;1.13;;;;;;;16.23;64.06;101144.13;4922632;28;20048;-85
2022/07/16 04:14:39;;;;;;;2.30;0.68;;;;;;;16.17;64.63;101154.81;4941639;28;20043;-85
2022/07/16 04:17:05;;;;;;;11.10;1.50;;;;;;;16.14;65.32;101166.34;4944032;28;20055;-85
2022/07/16 04:19:32;;;;;;;1.45;1.35;;;;;;;16.11;66.34;101162.88;4955297;28;20054;-85
2022/07/16 04:21:59;;;;;;;1.83;1.20;;;;;;;16.04;67.52;101159.53;4921653;28;20055;-87
2022/07/16 04:24:26;;;;;;;1.85;1.30;;;;;;;15.98;68.54;101164.94;4922244;28;20422;-84
2022/07/16 04:26:52;;;;;;;2.08;1.02;;;;;;;15.91;70.36;101166.00;4919531;28;20522;-83
2022/07/16 04:29:19;;;;;;;3.75;1.95;;;;;;;15.73;73.09;101175.16;4936661;28;20051;-84
2022/07/16 04:31:46;;;;;;;2.03;0.93;;;;;;;15.49;75.34;101178.31;4928403;28;20051;-83
2022/07/16 04:34:12;;;;;;;4.20;1.35;;;;;;;15.36;77.58;101175.03;4919762;28;20478;-82
2022/07/16 04:36:39;;;;;;;3.22;1.25;;;;;;;15.27;78.91;101171.75;4935833;28;20106;-84
2022/07/16 04:39:06;;;;;;;3.83;1.55;;;;;;;15.16;80.67;101175.47;4935701;28;20043;-83
2022/07/16 04:41:33;;;;;;;8.40;2.25;;;;;;;15.11;82.91;101177.31;4932111;28;20101;-84
2022/07/16 04:43:59;;;;;;;1.70;1.40;;;;;;;15.09;82.86;101183.50;4936815;28;20074;-85
2022/07/16 04:46:26;;;;;;;5.93;2.28;;;;;;;15.07;84.16;101193.22;4919575;28;20059;-83
2022/07/16 04:48:53;;;;;;;2.35;1.65;;;;;;;15.05;85.44;101187.97;4935902;28;20059;-83
2022/07/16 04:51:19;;;;;;;2.30;2.13;;;;;;;14.99;86.42;101185.44;4935753;28;20242;-85
2022/07/16 04:53:46;;;;;;;1.42;1.30;;;;;;;14.91;87.41;101195.28;4932977;29;20067;-85
2022/07/16 04:56:13;;;;;;;4.13;1.77;;;;;;;14.86;87.51;101197.97;4912456;29;20075;-84
2022/07/16 04:58:39;;;;;;;3.95;1.80;;;;;;;14.84;89.38;101202.44;4909840;29;20492;-85
2022/07/16 05:01:06;;;;;;;6.25;1.67;;;;;;;14.74;90.41;101200.84;4916414;29;20079;-84
2022/07/16 05:03:33;;;;;;;2.95;1.83;;;;;;;14.67;91.08;101205.34;4913947;29;20052;-83
2022/07/16 05:06:00;;;;;;;2.20;2.10;;;;;;;14.59;93.09;101208.09;4929737;28;20111;-84
2022/07/16 05:08:27;;;;;;;4.13;1.92;;;;;;;14.50;95.08;101210.88;4928718;29;20384;-85
2022/07/16 05:10:53;;;;;;;1.90;1.80;;;;;;;14.36;96.20;101211.94;4911346;29;20411;-83
2022/07/16 05:13:20;;;;;;;2.53;2.13;;;;;;;14.31;97.59;101218.19;4922183;29;20091;-84
2022/07/16 05:15:47;;;;;;;2.30;2.10;;;;;;;14.21;99.37;101214.84;4928867;29;20400;-84
2022/07/16 05:18:14;;;;;;;3.80;2.45;;;;;;;14.18;99.84;101220.13;4928683;29;20047;-84
2022/07/16 05:20:41;;;;;;;3.80;2.47;;;;;;;14.16;100.00;101227.22;4911194;29;20065;-84
2022/07/16 05:23:08;;;;;;;2.72;2.50;;;;;;;14.08;100.00;101227.31;4909696;29;20059;-86
2022/07/16 05:25:34;;;;;;;2.28;2.08;;;;;;;13.99;100.00;101230.09;4944644;28;20402;-85
2022/07/16 05:28:01;;;;;;;2.70;2.47;;;;;;;13.87;100.00;101229.34;4918521;29;20376;-84
2022/07/16 05:30:28;;;;;;;4.30;3.03;;;;;;;13.80;100.00;101238.19;4919146;29;20047;-87
2022/07/16 05:32:55;;;;;;;2.78;2.45;;;;;;;13.80;100.00;101246.09;4932422;29;20058;-84
2022/07/16 05:35:22;;;;;;;2.90;2.70;;;;;;;13.86;100.00;101239.91;4912741;29;20449;-86
2022/07/16 05:37:49;;;;;;;4.95;2.30;;;;;;;13.94;100.00;101239.81;4913295;29;20077;-83
2022/07/16 05:40:16;;;;;;;5.00;2.47;;;;;;;14.03;100.00;101237.91;4926921;29;20158;-85
2022/07/16 05:42:43;;;;;;;3.70;2.25;;;;;;;14.09;100.00;101239.56;4909657;29;20055;-85
2022/07/16 05:45:10;;;;;;;2.88;2.67;;;;;;;14.20;100.00;101240.28;4913695;29;20051;-83
2022/07/16 05:47:37;;;;;;;2.97;2.47;;;;;;;14.22;100.00;101241.16;4930986;29;20071;-86
2022/07/16 05:50:08;;;;;;;3.53;2.75;;;;;;;14.20;100.00;101247.31;4929626;29;20402;-86
2022/07/16 05:52:35;;;;;;;5.35;3.17;;;;;;;14.23;100.00;101244.63;4929487;29;20577;-84
2022/07/16 05:55:02;;;;;;;2.45;2.30;;;;;;;14.40;100.00;101254.91;4954593;28;20466;-84
2022/07/16 05:57:29;;;;;;;2.58;2.38;;;;;;;14.60;100.00;101256.38;4935994;28;20043;-84
2022/07/16 05:59:56;;;;;;;3.67;2.40;;;;;;;14.73;100.00;101257.94;4948738;28;20122;-84
2022/07/16 06:02:28;;;;;;;4.75;3.00;;;;;;;14.82;100.00;101257.81;4937047;28;20043;-84
2022/07/16 06:04:55;;;;;;;3.78;3.13;;;;;;;14.94;100.00;101259.38;4949492;28;20074;-85
2022/07/16 06:07:22;;;;;;;3.45;2.50;;;;;;;15.05;100.00;101259.16;4931190;28;20106;-85
2022/07/16 06:09:49;;;;;;;3.10;2.85;;;;;;;15.16;100.00;101264.22;4935670;28;20051;-83
2022/07/16 06:12:15;;;;;;;3.50;2.50;;;;;;;15.32;99.90;101270.13;4938077;28;20086;-85
2022/07/16 06:14:42;;;;;;;2.90;2.70;;;;;;;15.39;99.45;101263.81;4916919;28;20098;-82
2022/07/16 06:17:09;;;;;;;2.97;2.67;;;;;;;15.37;98.98;101273.53;4924263;28;20058;-84
2022/07/16 06:19:36;;;;;;;2.72;2.50;;;;;;;15.37;98.52;101277.03;4921221;28;20051;-84
2022/07/16 06:22:05;;;;;;;2.70;2.50;;;;;;;15.45;98.54;101274.25;4899505;28;20436;-86
2022/07/16 06:24:32;;;;;;;3.00;2.45;;;;;;;15.51;97.98;101278.53;4926014;28;20154;-84
2022/07/16 06:26:58;;;;;;;2.33;2.22;;;;;;;15.62;97.12;101276.56;4918915;28;20069;-82
2022/07/16 06:29:25;;;;;;;2.90;2.70;;;;;;;15.76;96.17;101283.31;4934618;28;20458;-84
2022/07/16 06:31:52;;;;;;;2.60;2.40;;;;;;;15.82;94.76;101289.38;4931579;28;20097;-82
2022/07/16 06:34:19;;;;;;;2.65;2.45;;;;;;;15.98;94.05;101289.06;4935959;28;20047;-86
2022/07/16 06:36:45;;;;;;;2.90;2.10;;;;;;;16.15;93.37;101288.69;4948201;28;20035;-84
2022/07/16 06:39:12;;;;;;;3.00;2.20;;;;;;;16.40;90.44;101291.66;4934007;28;20053;-86
2022/07/16 06:41:40;;;;;;;1.90;1.80;;;;;;;16.52;90.35;101299.28;4933561;28;20085;-85
2022/07/16 06:44:09;;;;;;;2.20;2.00;;;;;;;16.55;89.09;101295.72;4951280;28;20043;-84
2022/07/16 06:46:37;;;;;;;5.20;2.45;;;;;;;16.37;90.00;101292.59;4934105;28;20043;-85
2022/07/16 06:49:04;;;;;;;6.07;2.45;;;;;;;16.13;90.68;101293.16;4950278;28;20985;-83
2022/07/16 06:51:30;;;;;;;1.38;1.38;;;;;;;15.90;91.10;101298.91;4934480;28;20058;-84
2022/07/16 06:53:57;;;;;;;2.85;1.25;;;;;;;15.76;92.00;101286.84;4929699;28;20074;-84
2022/07/16 06:56:24;;;;;;;2.63;1.75;;;;;;;15.87;92.03;101294.56;4915874;28;21131;-83
2022/07/16 06:58:50;;;;;;;2.13;1.88;;;;;;;16.20;91.02;101300.03;4914605;28;20070;-86
2022/07/16 07:01:17;;;;;;;1.67;1.27;;;;;;;16.52;85.83;101288.72;4928565;28;20053;-85
2022/07/16 07:03:44;;;;;;;2.58;1.45;;;;;;;16.61;83.95;101292.94;4930128;28;20050;-87
2022/07/16 07:06:11;;;;;;;1.33;1.17;;;;;;;16.73;83.53;101294.41;4946382;28;20039;-86
2022/07/16 07:08:37;;;;;;;1.10;1.10;;;;;;;16.76;82.39;101294.31;4929984;28;20065;-86
2022/07/16 07:11:04;;;;;;;2.60;1.30;;;;;;;16.80;80.18;101295.97;4916092;28;20110;-88
2022/07/16 07:13:32;;;;;;;2.28;1.38;;;;;;;16.85;80.53;101303.81;4928723;28;20102;-85
2022/07/16 07:16:00;;;;;;;1.98;1.23;;;;;;;16.94;79.03;101302.75;4921358;28;20046;-86
2022/07/16 07:18:27;;;;;;;0.70;0.70;;;;;;;17.02;77.43;101301.63;4914961;28;20314;-83
2022/07/16 07:20:53;;;;;;;1.20;1.00;;;;;;;17.17;77.61;101308.31;4935426;28;20075;-83
2022/07/16 07:23:20;;;;;;;1.58;1.33;;;;;;;17.41;75.52;101313.84;4933942;28;20466;-84
2022/07/16 07:25:50;;;;;;;1.85;0.90;;;;;;;17.56;74.05;101299.34;4917194;28;20043;-85
2022/07/16 07:28:16;;;;;;;2.45;1.10;;;;;;;17.52;73.69;101309.16;4933020;28;20593;-85
2022/07/16 07:30:44;;;;;;;1.75;0.90;;;;;;;17.57;74.36;101309.00;4930377;28;20047;-85
2022/07/16 07:33:11;;;;;;;2.72;1.15;;;;;;;17.73;73.28;101306.81;4953806;28;20467;-85
2022/07/16 07:35:39;;;;;;;2.30;1.05;;;;;;;18.13;70.58;101303.03;4918473;28;20055;-84
2022/07/16 07:38:06;;;;;;;2.05;0.80;;;;;;;18.82;69.16;101296.44;4920075;28;20388;-84
2022/07/16 07:40:33;;;;;;;0.95;0.73;;;;;;;19.48;63.65;101302.16;4931639;28;20046;-84
2022/07/16 07:43:00;;;;;;;0.73;0.60;;;;;;;19.42;63.33;101297.06;4917022;28;20058;-86
2022/07/16 07:45:27;;;;;;;5.15;1.13;;;;;;;19.21;64.61;101311.09;4936815;28;20048;-83
2022/07/16 07:47:54;;;;;;;3.20;1.00;;;;;;;18.96;64.62;101304.00;4940176;28;20294;-85
2022/07/16 07:50:21;;;;;;;1.00;0.88;;;;;;;18.84;64.69;101322.00;4934906;28;20103;-84
2022/07/16 07:52:49;;;;;;;2.17;0.90;;;;;;;19.16;63.88;101312.13;4936260;28;20057;-84
2022/07/16 07:55:16;;;;;;;4.22;1.52;;;;;;;19.77;62.75;101316.16;4918298;28;20137;-84
2022/07/16 07:57:43;;;;;;;1.05;0.98;;;;;;;20.07;60.93;101323.09;4920676;28;20529;-84
2022/07/16 08:00:10;;;;;;;1.38;1.00;;;;;;;19.96;61.11;101318.19;4940237;28;20073;-85
2022/07/16 08:02:37;;;;;;;2.70;1.05;;;;;;;19.82;61.70;101322.22;4940069;28;20039;-84
2022/07/16 08:05:09;;;;;;;2.20;0.93;;;;;;;19.81;60.47;101325.78;4935425;28;20557;-85
2022/07/16 08:07:36;;;;;;;2.95;1.20;;;;;;;19.74;59.98;101320.75;4921600;28;20047;-83
2022/07/16 08:10:08;;;;;;;2.30;1.00;;;;;;;19.55;60.80;101326.69;4939637;28;20055;-86
2022/07/16 08:12:35;;;;;;;1.83;1.00;;;;;;;19.60;59.86;101326.56;4925544;28;20637;-84
2022/07/16 08:15:02;;;;;;;2.92;0.98;;;;;;;19.73;59.57;101329.63;4940011;28;20615;-84
2022/07/16 08:17:29;;;;;;;2.03;1.10;;;;;;;19.89;58.92;101333.47;4939065;28;20043;-85
2022/07/16 08:19:55;;;;;;;1.17;0.70;;;;;;;19.74;59.14;101329.56;4940329;28;20122;-85
2022/07/16 08:22:22;;;;;;;1.10;1.00;;;;;;;19.42;60.59;101339.53;4929459;28;20136;-86
2022/07/16 08:27:33;;;;;;;1.50;0.70;;;;;;;18.97;61.32;101343.72;4934683;28;20049;-85
2022/07/16 08:29:59;;;;;;;1.40;1.30;;;;;;;19.60;60.00;101343.34;4931059;28;20058;-85
2022/07/16 08:32:26;;;;;;;1.67;1.13;;;;;;;20.72;56.69;101334.75;4936611;28;20055;-83
2022/07/16 08:34:53;;;;;;;1.83;0.77;;;;;;;21.77;53.26;101338.28;4929723;28;20129;-83
2022/07/16 08:37:35;;;;;;;0.95;0.65;;;;;;;22.73;49.05;101333.81;4919439;28;20741;-85
2022/07/16 08:40:08;;;;;;;3.88;0.80;;;;;;;23.52;47.14;101332.56;4917848;28;20057;-84
2022/07/16 08:42:36;;;;;;;1.93;0.93;;;;;;;24.26;46.15;101341.97;4930812;28;20042;-84
2022/07/16 08:45:07;;;;;;;1.42;0.90;;;;;;;25.23;43.65;101337.34;4937986;28;20062;-83
2022/07/16 08:47:36;;;;;;;1.02;0.70;;;;;;;25.85;42.23;101344.31;4939017;28;20130;-83
2022/07/16 08:50:13;;;;;;;0.47;0.38;;;;;;;26.23;39.91;101343.75;4917233;28;20137;-84
2022/07/16 08:52:45;;;;;;;0.90;0.50;;;;;;;25.89;40.17;101343.16;4935983;28;20054;-83
2022/07/16 08:55:12;;;;;;;1.02;0.45;;;;;;;24.97;42.43;101353.16;4935370;28;20054;-84
2022/07/16 08:57:40;;;;;;;1.90;0.70;;;;;;;24.11;42.95;101353.50;4919515;28;20292;-84
2022/07/16 09:00:12;;;;;;;1.98;0.45;;;;;;;23.93;42.17;101366.91;4937500;28;20050;-87
2022/07/16 09:02:39;;;;;;;1.95;0.68;;;;;;;24.78;40.78;101358.69;4929978;28;20126;-84
2022/07/16 09:05:08;;;;;;;1.77;0.60;;;;;;;25.77;39.86;101371.63;4916792;28;20047;-85
2022/07/16 09:07:35;;;;;;;0.77;0.43;;;;;;;26.70;37.85;101366.66;4945701;28;20066;-85
2022/07/16 09:10:04;;;;;;;1.13;0.40;;;;;;;27.54;36.99;101367.31;4930179;28;20300;-84
2022/07/16 09:12:35;;;;;;;3.08;0.57;;;;;;;27.95;34.82;101359.13;4931887;28;20043;-86
2022/07/16 09:15:26;;;;;;;2.35;0.60;;;;;;;28.03;33.90;101356.75;4938158;28;20155;-85
2022/07/16 09:18:23;;;;;;;1.42;0.60;;;;;;;28.85;32.07;101357.06;4935695;28;20131;-86
2022/07/16 09:21:02;;;;;;;3.67;0.70;;;;;;;29.43;30.65;101364.38;4925959;28;20070;-85
2022/07/16 09:23:36;;;;;;;1.48;0.50;;;;;;;29.38;30.32;101369.28;4934688;28;20073;-86
2022/07/16 09:26:07;;;;;;;5.78;0.85;;;;;;;27.94;32.43;101363.66;4913985;28;20127;-85
2022/07/16 09:28:47;;;;;;;2.50;1.20;;;;;;;26.10;34.79;101375.88;4928652;28;20047;-85
2022/07/16 09:31:42;;;;;;;3.95;0.90;;;;;;;23.97;39.12;101399.72;4939065;28;20047;-84
2022/07/16 09:34:12;;;;;;;1.55;1.45;;;;;;;22.78;41.99;101403.00;4919430;28;20340;-85
2022/07/16 09:36:57;;;;;;;3.90;0.93;;;;;;;23.21;41.88;101408.94;4945807;28;20423;-84
2022/07/16 09:39:25;;;;;;;1.80;0.60;;;;;;;25.20;37.50;101401.81;4952452;28;20046;-85
2022/07/16 09:41:52;;;;;;;2.85;0.75;;;;;;;26.82;35.20;101399.06;4917990;28;20707;-84
2022/07/16 09:44:25;;;;;;;2.20;0.98;;;;;;;28.26;32.20;101402.72;4937917;28;20055;-85
2022/07/16 09:47:11;;;;;;;3.83;1.10;;;;;;;28.64;30.38;101405.31;4936014;28;20044;-85
2022/07/16 09:49:40;;;;;;;3.00;0.82;;;;;;;28.06;31.63;101413.94;4931004;28;20124;-85
2022/07/16 09:52:09;;;;;;;1.52;0.50;;;;;;;27.98;30.93;101416.28;4929364;28;20062;-83
2022/07/16 09:54:39;;;;;;;1.60;0.63;;;;;;;27.61;31.03;101432.28;4930383;28;20055;-84
2022/07/16 09:57:18;;;;;;;1.15;0.65;;;;;;;28.03;29.92;101422.25;4928937;28;20089;-86
2022/07/16 09:59:51;;;;;;;2.45;0.90;;;;;;;28.98;29.37;101420.81;4945652;28;20051;-85
2022/07/16 10:02:18;;;;;;;1.65;0.75;;;;;;;29.67;28.85;101417.41;4935721;28;20138;-85
2022/07/16 10:04:46;;;;;;;2.63;0.75;;;;;;;28.78;29.80;101425.84;4937059;28;20077;-83
2022/07/16 10:07:13;;;;;;;2.22;0.90;;;;;;;27.20;31.59;101438.66;4934528;28;20090;-86
2022/07/16 10:09:41;;;;;;;3.33;1.30;;;;;;;25.69;33.50;101452.53;4916536;28;20043;-83
2022/07/16 10:12:16;;;;;;;2.97;0.95;;;;;;;25.04;34.41;101453.59;4925682;28;20061;-85
2022/07/16 10:14:55;;;;;;;2.70;0.90;;;;;;;25.59;33.30;101460.28;4921622;28;20094;-84
2022/07/16 10:17:32;;;;;;;1.23;0.80;;;;;;;27.00;31.66;101451.59;4910896;28;20173;-85
2022/07/16 10:20:05;;;;;;;4.28;0.77;;;;;;;28.71;29.36;101436.22;4929136;28;20047;-84
2022/07/16 10:22:36;;;;;;;2.95;0.68;;;;;;;30.22;26.91;101455.41;4916223;28;20047;-86
2022/07/16 10:25:15;;;;;;;1.70;0.77;;;;;;;30.92;25.67;101449.81;4929564;28;20313;-84
2022/07/16 10:27:42;;;;;;;1.42;0.70;;;;;;;31.34;25.04;101455.31;4928121;28;20070;-86
2022/07/16 10:30:09;;;;;;;1.00;0.82;;;;;;;31.90;24.28;101461.44;4911315;28;20101;-85
2022/07/16 10:33:06;;;;;;;0.98;0.40;;;;;;;32.40;22.59;101453.44;4933195;28;20054;-84
2022/07/16 10:35:42;;;;;;;0.88;0.82;;;;;;;32.80;23.01;101467.97;4939774;28;20058;-84
2022/07/16 10:38:24;;;;;;;1.80;0.70;;;;;;;33.09;21.83;101464.41;4913873;28;20070;-84
2022/07/16 10:41:13;;;;;;;1.08;0.40;;;;;;;33.68;21.05;101473.44;4945908;28;20054;-86
2022/07/16 10:43:40;;;;;;;1.88;0.70;;;;;;;32.11;22.38;101477.63;4935010;28;20134;-86
2022/07/16 10:46:14;;;;;;;2.00;0.65;;;;;;;30.19;23.33;101488.03;4944183;28;20044;-85
2022/07/16 10:48:41;;;;;;;2.67;0.70;;;;;;;30.90;22.98;101489.63;4920268;28;20095;-85
2022/07/16 10:51:23;;;;;;;4.05;0.38;;;;;;;31.25;21.69;101489.44;4948991;28;20042;-85
2022/07/16 10:53:57;;;;;;;5.47;1.63;;;;;;;29.79;22.47;101483.03;4933359;28;20117;-85
2022/07/16 10:56:41;;;;;;;2.30;0.70;;;;;;;28.98;23.39;101481.00;4930857;28;20581;-85
2022/07/16 10:59:12;;;;;;;3.72;0.65;;;;;;;29.26;24.17;101502.34;4931357;28;20066;-85
2022/07/16 11:01:46;;;;;;;1.77;0.60;;;;;;;30.73;21.90;101505.38;4903668;28;20047;-85
2022/07/16 11:04:15;;;;;;;2.05;0.60;;;;;;;32.32;19.78;101493.91;4930585;28;20597;-86
2022/07/16 11:06:52;;;;;;;1.67;0.70;;;;;;;32.59;20.86;101495.13;4927278;28;20044;-85
2022/07/16 11:09:33;;;;;;;3.20;0.47;;;;;;;31.54;21.15;101502.34;4914914;28;20070;-85
2022/07/16 11:12:25;;;;;;;2.65;0.80;;;;;;;30.52;22.30;101508.00;4911216;28;20047;-83
2022/07/16 11:14:57;;;;;;;4.40;0.68;;;;;;;29.77;23.43;101520.09;4937022;28;20050;-84
2022/07/16 11:17:29;;;;;;;1.15;0.70;;;;;;;31.13;22.88;101520.19;4925071;28;20729;-85
2022/07/16 11:20:00;;;;;;;1.53;0.70;;;;;;;32.77;21.63;101506.19;4932788;28;20138;-85
2022/07/16 11:22:34;;;;;;;1.48;0.50;;;;;;;32.81;21.28;101505.81;4916339;28;20131;-87
2022/07/16 11:25:05;;;;;;;1.55;0.57;;;;;;;31.70;22.69;101515.44;4916868;28;20051;-85
2022/07/16 11:27:41;;;;;;;3.92;1.00;;;;;;;31.63;22.81;101530.50;4907254;28;20043;-84
2022/07/16 11:30:14;;;;;;;2.13;0.70;;;;;;;31.47;21.97;101533.59;4916241;28;20047;-84
2022/07/16 11:32:45;;;;;;;2.08;0.80;;;;;;;31.08;22.94;101527.81;4931725;28;20043;-85
2022/07/16 11:35:13;;;;;;;2.20;0.77;;;;;;;32.31;21.22;101520.13;4929352;28;20047;-84
2022/07/16 11:37:53;;;;;;;2.78;0.50;;;;;;;33.39;19.87;101517.75;4912552;28;20134;-84